Time;durP1;ratioP1;P1;durP2;ratioP2;P2;SDS_P1;SDS_P2;PMS_P1;PMS_P2;Temp;Humidity;BMP_temperature;BMP_pressure;BME280_temperature;BME280_humidity;BME280_pressure;Samples;Min_cycle;Max_cycle;Signal;HPM_P1;HPM_P2
2022/12/08 00:00:19;;;;;;;;;;;;;;;;;;5074594;28;948;-76
2022/12/08 00:02:45;;;;;;;;;;;;;;;;;;5073738;28;1969;-75
2022/12/08 00:10:39;;;;;;;;;;;;;;;;;;5084864;28;985;-77
2022/12/08 00:13:05;;;;;;;;;;;;;;;;;;5083548;28;1311;-76
2022/12/08 00:15:31;;;;;;;;;;;;;;;;;;5075546;28;928;-77
2022/12/08 00:17:57;;;;;;;;;;;;;;;;;;5074112;28;964;-76
2022/12/08 00:20:23;;;;;;;;;;;;;;;;;;5073891;28;936;-77
2022/12/08 00:22:50;;;;;;;;;;;;;;;;;;5073020;28;1910;-76
2022/12/08 00:25:16;;;;;;;;;;;;;;;;;;5073506;28;953;-75
2022/12/08 00:27:42;;;;;;;;;;;;;;;;;;5072445;28;1275;-78
2022/12/08 00:30:08;;;;;;;;;;;;;;;;;;5073511;28;940;-76
2022/12/08 00:32:34;;;;;;;;;;;;;;;;;;5071551;28;1342;-77
2022/12/08 00:35:00;;;;;;;;;;;;;;;;;;5072849;28;858;-76
2022/12/08 00:37:26;;;;;;;;;;;;;;;;;;5073667;28;1122;-75
2022/12/08 00:39:52;;;;;;;;;;;;;;;;;;5073540;28;889;-76
2022/12/08 00:42:18;;;;;;;;;;;;;;;;;;5072724;28;1975;-77
2022/12/08 00:44:45;;;;;;;;;;;;;;;;;;5073586;28;1024;-76
2022/12/08 00:47:11;;;;;;;;;;;;;;;;;;5077226;28;1115;-77
2022/12/08 00:49:37;;;;;;;;;;;;;;;;;;5072979;28;1455;-77
2022/12/08 00:52:03;;;;;;;;;;;;;;;;;;5072527;28;1476;-77
2022/12/08 00:54:29;;;;;;;;;;;;;;;;;;5071995;28;1338;-77
2022/12/08 00:56:55;;;;;;;;;;;;;;;;;;5073274;28;1059;-76
2022/12/08 00:59:21;;;;;;;;;;;;;;;;;;5071991;28;1188;-77
2022/12/08 01:01:47;;;;;;;;;;;;;;;;;;5076337;28;1914;-76
2022/12/08 01:04:14;;;;;;;;;;;;;;;;;;5082106;28;1075;-76
2022/12/08 01:06:40;;;;;;;;;;;;;;;;;;5083406;28;1055;-76
2022/12/08 01:09:06;;;;;;;;;;;;;;;;;;5082282;28;910;-76
2022/12/08 01:11:32;;;;;;;;;;;;;;;;;;5072990;28;1044;-76
2022/12/08 01:13:58;;;;;;;;;;;;;;;;;;5072860;28;1340;-76
2022/12/08 01:16:24;;;;;;;;;;;;;;;;;;5071981;28;1132;-76
2022/12/08 01:18:50;;;;;;;;;;;;;;;;;;5072732;28;1025;-76
2022/12/08 01:21:16;;;;;;;;;;;;;;;;;;5072037;28;1973;-74
2022/12/08 01:23:43;;;;;;;;;;;;;;;;;;5072600;28;1305;-76
2022/12/08 01:26:09;;;;;;;;;;;;;;;;;;5072506;28;1063;-76
2022/12/08 01:28:35;;;;;;;;;;;;;;;;;;5072528;28;904;-76
2022/12/08 01:31:01;;;;;;;;;;;;;;;;;;5072307;28;1091;-76
2022/12/08 01:33:27;;;;;;;;;;;;;;;;;;5070024;28;1397;-76
2022/12/08 01:35:54;;;;;;;;;;;;;;;;;;5072359;28;858;-74
2022/12/08 01:38:20;;;;;;;;;;;;;;;;;;5072301;28;1079;-76
2022/12/08 01:40:46;;;;;;;;;;;;;;;;;;5072205;28;778;-76
2022/12/08 01:43:12;;;;;;;;;;;;;;;;;;5070594;28;1984;-75
2022/12/08 01:45:38;;;;;;;;;;;;;;;;;;5071146;28;1202;-76
2022/12/08 01:48:04;;;;;;;;;;;;;;;;;;5072115;28;1039;-76
2022/12/08 01:50:30;;;;;;;;;;;;;;;;;;5072081;28;1079;-77
2022/12/08 01:52:56;;;;;;;;;;;;;;;;;;5071041;28;1296;-77
2022/12/08 01:55:22;;;;;;;;;;;;;;;;;;5070553;28;1258;-76
2022/12/08 01:57:49;;;;;;;;;;;;;;;;;;5071891;28;1059;-76
2022/12/08 02:00:15;;;;;;;;;;;;;;;;;;5087567;28;1431;-76
2022/12/08 02:02:41;;;;;;;;;;;;;;;;;;5071253;28;1973;-76
2022/12/08 02:05:07;;;;;;;;;;;;;;;;;;5071674;28;1044;-76
2022/12/08 02:07:33;;;;;;;;;;;;;;;;;;5072046;28;1031;-77
2022/12/08 02:09:59;;;;;;;;;;;;;;;;;;5071850;28;792;-76
2022/12/08 02:12:25;;;;;;;;;;;;;;;;;;5086899;28;1379;-76
2022/12/08 02:14:51;;;;;;;;;;;;;;;;;;5072058;28;909;-76
2022/12/08 02:17:18;;;;;;;;;;;;;;;;;;5071905;28;1191;-77
2022/12/08 02:19:44;;;;;;;;;;;;;;;;;;5070641;28;1226;-76
2022/12/08 02:22:10;;;;;;;;;;;;;;;;;;5071065;28;1914;-76
2022/12/08 02:24:36;;;;;;;;;;;;;;;;;;5071961;28;956;-76
2022/12/08 02:27:02;;;;;;;;;;;;;;;;;;5071768;28;1100;-76
2022/12/08 02:29:28;;;;;;;;;;;;;;;;;;5070476;28;1301;-76
2022/12/08 02:31:54;;;;;;;;;;;;;;;;;;5070969;28;1319;-76
2022/12/08 02:34:20;;;;;;;;;;;;;;;;;;5070296;28;1213;-76
2022/12/08 02:36:46;;;;;;;;;;;;;;;;;;5071819;28;745;-76
2022/12/08 02:39:12;;;;;;;;;;;;;;;;;;5071239;28;909;-76
2022/12/08 02:41:38;;;;;;;;;;;;;;;;;;5070825;28;1910;-75
2022/12/08 02:44:04;;;;;;;;;;;;;;;;;;5071417;28;993;-76
2022/12/08 02:46:30;;;;;;;;;;;;;;;;;;5071452;28;1090;-76
2022/12/08 02:48:56;;;;;;;;;;;;;;;;;;5071398;28;886;-76
2022/12/08 02:51:23;;;;;;;;;;;;;;;;;;5070805;28;948;-75
2022/12/08 02:53:49;;;;;;;;;;;;;;;;;;5071380;28;1250;-75
2022/12/08 02:56:15;;;;;;;;;;;;;;;;;;5071117;28;1004;-74
2022/12/08 02:58:41;;;;;;;;;;;;;;;;;;5074706;28;1538;-75
2022/12/08 03:01:07;;;;;;;;;;;;;;;;;;5074186;28;1128;-76
2022/12/08 03:03:33;;;;;;;;;;;;;;;;;;5074780;28;1920;-75
2022/12/08 03:05:59;;;;;;;;;;;;;;;;;;5075212;28;1391;-76
2022/12/08 03:08:25;;;;;;;;;;;;;;;;;;5075292;28;754;-76
2022/12/08 03:10:52;;;;;;;;;;;;;;;;;;5074996;28;1488;-76
2022/12/08 03:13:18;;;;;;;;;;;;;;;;;;5074129;28;1405;-75
2022/12/08 03:15:44;;;;;;;;;;;;;;;;;;5075302;28;1360;-76
2022/12/08 03:18:10;;;;;;;;;;;;;;;;;;5075055;28;1063;-75
2022/12/08 03:20:36;;;;;;;;;;;;;;;;;;5073967;28;1167;-76
2022/12/08 03:23:02;;;;;;;;;;;;;;;;;;5090116;28;1981;-75
2022/12/08 03:25:28;;;;;;;;;;;;;;;;;;5075147;28;1082;-76
2022/12/08 03:27:54;;;;;;;;;;;;;;;;;;5075095;28;945;-75
2022/12/08 03:30:20;;;;;;;;;;;;;;;;;;5075301;28;1055;-75
2022/12/08 03:32:46;;;;;;;;;;;;;;;;;;5074837;28;1259;-75
2022/12/08 03:35:12;;;;;;;;;;;;;;;;;;5083295;28;830;-75
2022/12/08 03:37:39;;;;;;;;;;;;;;;;;;5084806;28;1544;-74
2022/12/08 03:40:05;;;;;;;;;;;;;;;;;;5077666;28;1157;-75
2022/12/08 03:42:31;;;;;;;;;;;;;;;;;;5066543;28;1999;-75
2022/12/08 03:44:57;;;;;;;;;;;;;;;;;;5074595;28;1415;-74
2022/12/08 03:47:23;;;;;;;;;;;;;;;;;;5074952;28;775;-75
2022/12/08 03:49:49;;;;;;;;;;;;;;;;;;5074345;28;1075;-75
2022/12/08 03:52:15;;;;;;;;;;;;;;;;;;5070698;28;1317;-75
2022/12/08 03:54:41;;;;;;;;;;;;;;;;;;5073159;28;1407;-75
2022/12/08 03:57:07;;;;;;;;;;;;;;;;;;5067913;28;1602;-75
2022/12/08 03:59:33;;;;;;;;;;;;;;;;;;5067672;28;1241;-75
2022/12/08 04:01:59;;;;;;;;;;;;;;;;;;5071809;28;1906;-75
2022/12/08 04:04:25;;;;;;;;;;;;;;;;;;5065682;28;1282;-75
2022/12/08 04:06:51;;;;;;;;;;;;;;;;;;5073125;28;1572;-75
2022/12/08 04:09:18;;;;;;;;;;;;;;;;;;5059293;28;1419;-74
2022/12/08 04:11:44;;;;;;;;;;;;;;;;;;5081865;28;1362;-75
2022/12/08 04:14:10;;;;;;;;;;;;;;;;;;5053903;28;1184;-74
2022/12/08 04:16:36;;;;;;;;;;;;;;;;;;5072825;28;1506;-75
2022/12/08 04:19:02;;;;;;;;;;;;;;;;;;5064140;28;1387;-75
2022/12/08 04:21:28;;;;;;;;;;;;;;;;;;5088914;28;1204;-75
2022/12/08 04:23:54;;;;;;;;;;;;;;;;;;5074063;28;1879;-76
2022/12/08 04:26:20;;;;;;;;;;;;;;;;;;5064126;28;1441;-75
2022/12/08 04:28:47;;;;;;;;;;;;;;;;;;5066515;28;1478;-75
2022/12/08 04:31:13;;;;;;;;;;;;;;;;;;5071766;28;1249;-74
2022/12/08 04:33:39;;;;;;;;;;;;;;;;;;5094324;22;2025;-71
2022/12/08 04:36:05;;;;;;;;;;;;;;;;;;5070943;28;1578;-74
2022/12/08 04:38:31;;;;;;;;;;;;;;;;;;5072984;28;1290;-74
2022/12/08 04:40:57;;;;;;;;;;;;;;;;;;5072946;28;1040;-75
2022/12/08 04:43:23;;;;;;;;;;;;;;;;;;5071932;28;1964;-74
2022/12/08 04:45:49;;;;;;;;;;;;;;;;;;5070975;28;1392;-74
2022/12/08 04:48:15;;;;;;;;;;;;;;;;;;5070867;28;1431;-74
2022/12/08 04:50:42;;;;;;;;;;;;;;;;;;5063474;28;1396;-74
2022/12/08 04:53:08;;;;;;;;;;;;;;;;;;5071560;28;1425;-74
2022/12/08 04:55:34;;;;;;;;;;;;;;;;;;5053423;28;1633;-73
2022/12/08 04:58:00;;;;;;;;;;;;;;;;;;5068738;28;1455;-74
2022/12/08 05:00:26;;;;;;;;;;;;;;;;;;5067142;28;1486;-75
2022/12/08 05:02:52;;;;;;;;;;;;;;;;;;5038906;28;1965;-73
2022/12/08 05:05:18;;;;;;;;;;;;;;;;;;5071274;28;1133;-74
2022/12/08 05:07:44;;;;;;;;;;;;;;;;;;5054697;28;1614;-74
2022/12/08 05:10:11;;;;;;;;;;;;;;;;;;5072427;28;1125;-74
2022/12/08 05:12:37;;;;;;;;;;;;;;;;;;5054069;28;1420;-73
2022/12/08 05:15:03;;;;;;;;;;;;;;;;;;5072399;28;1063;-74
2022/12/08 05:17:29;;;;;;;;;;;;;;;;;;5072083;28;1290;-74
2022/12/08 05:19:55;;;;;;;;;;;;;;;;;;5072324;28;1291;-73
2022/12/08 05:22:21;;;;;;;;;;;;;;;;;;5071715;28;1922;-73
2022/12/08 05:24:47;;;;;;;;;;;;;;;;;;5071827;28;1830;-73
2022/12/08 05:27:13;;;;;;;;;;;;;;;;;;5072104;28;1194;-74
2022/12/08 05:29:39;;;;;;;;;;;;;;;;;;5072277;28;1115;-73
2022/12/08 05:32:05;;;;;;;;;;;;;;;;;;5053413;28;1298;-73
2022/12/08 05:34:31;;;;;;;;;;;;;;;;;;5071789;28;1369;-73
2022/12/08 05:36:58;;;;;;;;;;;;;;;;;;5072105;28;964;-74
2022/12/08 05:39:24;;;;;;;;;;;;;;;;;;5072049;28;1075;-74
2022/12/08 05:41:50;;;;;;;;;;;;;;;;;;5071700;28;936;-73
2022/12/08 05:44:16;;;;;;;;;;;;;;;;;;5054426;28;1989;-74
2022/12/08 05:46:42;;;;;;;;;;;;;;;;;;5053307;28;1331;-73
2022/12/08 05:49:08;;;;;;;;;;;;;;;;;;5059202;28;1304;-74
2022/12/08 05:51:34;;;;;;;;;;;;;;;;;;5074081;28;1056;-73
2022/12/08 05:54:00;;;;;;;;;;;;;;;;;;5071277;28;1383;-74
2022/12/08 05:56:26;;;;;;;;;;;;;;;;;;5053515;28;1036;-74
2022/12/08 05:58:52;;;;;;;;;;;;;;;;;;5070860;28;1214;-74
2022/12/08 06:01:19;;;;;;;;;;;;;;;;;;5052683;28;1193;-73
2022/12/08 06:03:45;;;;;;;;;;;;;;;;;;5071302;28;1913;-74
2022/12/08 06:06:11;;;;;;;;;;;;;;;;;;5052399;28;1263;-74
2022/12/08 06:08:37;;;;;;;;;;;;;;;;;;5067466;28;1216;-74
2022/12/08 06:11:03;;;;;;;;;;;;;;;;;;5070029;28;1212;-75
2022/12/08 06:13:29;;;;;;;;;;;;;;;;;;5069126;28;1386;-75
2022/12/08 06:15:55;;;;;;;;;;;;;;;;;;5070232;28;1252;-74
2022/12/08 06:18:21;;;;;;;;;;;;;;;;;;5070208;28;1220;-74
2022/12/08 06:20:47;;;;;;;;;;;;;;;;;;5070008;28;1244;-73
2022/12/08 06:23:13;;;;;;;;;;;;;;;;;;5068937;28;1969;-74
2022/12/08 06:25:39;;;;;;;;;;;;;;;;;;5052405;28;1335;-72
2022/12/08 06:28:06;;;;;;;;;;;;;;;;;;5070045;28;1200;-74
2022/12/08 06:30:32;;;;;;;;;;;;;;;;;;5069992;28;1255;-74
2022/12/08 06:32:58;;;;;;;;;;;;;;;;;;5065810;28;1377;-73
2022/12/08 06:35:25;;;;;;;;;;;;;;;;;;5069937;28;1228;-74
2022/12/08 06:37:51;;;;;;;;;;;;;;;;;;5051901;28;1271;-74
2022/12/08 06:40:17;;;;;;;;;;;;;;;;;;5069856;28;1374;-74
2022/12/08 06:42:46;;;;;;;;;;;;;;;;;;5069021;28;1902;-74
2022/12/08 06:45:12;;;;;;;;;;;;;;;;;;5069550;28;1236;-74
2022/12/08 06:47:38;;;;;;;;;;;;;;;;;;5071097;28;977;-74
2022/12/08 06:50:04;;;;;;;;;;;;;;;;;;5052940;28;1416;-74
2022/12/08 06:52:31;;;;;;;;;;;;;;;;;;5070532;28;1064;-73
2022/12/08 06:54:57;;;;;;;;;;;;;;;;;;5070810;28;1475;-74
2022/12/08 06:57:24;;;;;;;;;;;;;;;;;;5053128;28;1450;-74
2022/12/08 06:59:50;;;;;;;;;;;;;;;;;;5053198;28;1224;-75
2022/12/08 07:02:16;;;;;;;;;;;;;;;;;;5051821;28;1278;-74
2022/12/08 07:04:43;;;;;;;;;;;;;;;;;;5070748;28;1918;-75
2022/12/08 07:07:09;;;;;;;;;;;;;;;;;;5070977;28;1111;-75
2022/12/08 07:09:35;;;;;;;;;;;;;;;;;;5070877;28;1082;-74
2022/12/08 07:12:01;;;;;;;;;;;;;;;;;;5070228;28;1055;-74
2022/12/08 07:14:27;;;;;;;;;;;;;;;;;;5070804;28;1414;-74
2022/12/08 07:16:53;;;;;;;;;;;;;;;;;;5051960;28;1299;-74
2022/12/08 07:19:19;;;;;;;;;;;;;;;;;;5052558;28;1510;-73
2022/12/08 07:21:46;;;;;;;;;;;;;;;;;;5070360;28;1063;-75
2022/12/08 07:24:12;;;;;;;;;;;;;;;;;;5052638;28;1914;-74
2022/12/08 07:26:38;;;;;;;;;;;;;;;;;;5071021;28;1305;-75
2022/12/08 07:29:04;;;;;;;;;;;;;;;;;;5070680;28;906;-75
2022/12/08 07:31:30;;;;;;;;;;;;;;;;;;5070079;28;961;-75
2022/12/08 07:33:57;;;;;;;;;;;;;;;;;;5052374;28;1324;-75
2022/12/08 07:36:23;;;;;;;;;;;;;;;;;;5052853;28;1160;-75
2022/12/08 07:38:49;;;;;;;;;;;;;;;;;;5070705;28;1008;-75
2022/12/08 07:41:15;;;;;;;;;;;;;;;;;;5069999;28;1102;-73
2022/12/08 07:43:41;;;;;;;;;;;;;;;;;;5070684;28;1910;-74
2022/12/08 07:46:07;;;;;;;;;;;;;;;;;;5072174;28;1681;-74
2022/12/08 07:48:33;;;;;;;;;;;;;;;;;;5074295;28;1055;-74
2022/12/08 07:51:00;;;;;;;;;;;;;;;;;;5074031;28;822;-75
2022/12/08 07:53:26;;;;;;;;;;;;;;;;;;5073559;28;1332;-74
2022/12/08 07:55:52;;;;;;;;;;;;;;;;;;5066932;28;1188;-73
2022/12/08 07:58:18;;;;;;;;;;;;;;;;;;5073134;28;1115;-74
2022/12/08 08:00:44;;;;;;;;;;;;;;;;;;5055646;28;1235;-74
2022/12/08 08:03:10;;;;;;;;;;;;;;;;;;5072378;28;1977;-74
2022/12/08 08:05:36;;;;;;;;;;;;;;;;;;5055435;28;980;-75
2022/12/08 08:08:02;;;;;;;;;;;;;;;;;;5072857;28;1235;-74
2022/12/08 08:10:28;;;;;;;;;;;;;;;;;;5055324;28;1342;-74
2022/12/08 08:12:54;;;;;;;;;;;;;;;;;;5054478;28;1399;-72
2022/12/08 08:15:21;;;;;;;;;;;;;;;;;;5073038;28;1215;-74
2022/12/08 08:17:47;;;;;;;;;;;;;;;;;;5073480;28;847;-75
2022/12/08 08:20:13;;;;;;;;;;;;;;;;;;5055615;28;1248;-74
2022/12/08 08:22:39;;;;;;;;;;;;;;;;;;5082650;28;1329;-74
2022/12/08 08:25:05;;;;;;;;;;;;;;;;;;5092764;28;1914;-74
2022/12/08 08:27:31;;;;;;;;;;;;;;;;;;5087015;28;1055;-73
2022/12/08 08:29:57;;;;;;;;;;;;;;;;;;5054736;28;1151;-73
2022/12/08 08:32:23;;;;;;;;;;;;;;;;;;5053963;28;1203;-73
2022/12/08 08:34:49;;;;;;;;;;;;;;;;;;5072907;28;1345;-73
2022/12/08 08:37:15;;;;;;;;;;;;;;;;;;5072764;28;1067;-73
2022/12/08 08:39:43;;;;;;;;;;;;;;;;;;5073006;28;819;-74
2022/12/08 08:42:09;;;;;;;;;;;;;;;;;;5071725;28;1048;-73
2022/12/08 08:44:36;;;;;;;;;;;;;;;;;;5054315;28;1906;-74
2022/12/08 08:47:02;;;;;;;;;;;;;;;;;;5072671;28;868;-73
2022/12/08 08:49:28;;;;;;;;;;;;;;;;;;5072143;28;1314;-73
2022/12/08 08:51:54;;;;;;;;;;;;;;;;;;5070766;28;1362;-72
2022/12/08 08:54:20;;;;;;;;;;;;;;;;;;5052636;28;1378;-72
2022/12/08 08:56:47;;;;;;;;;;;;;;;;;;5053304;28;1260;-73
2022/12/08 08:59:13;;;;;;;;;;;;;;;;;;5070839;28;1279;-71
2022/12/08 09:01:39;;;;;;;;;;;;;;;;;;5054276;28;1534;-73
2022/12/08 09:04:05;;;;;;;;;;;;;;;;;;5077002;28;1954;-73
2022/12/08 09:06:31;;;;;;;;;;;;;;;;;;5082321;28;1075;-74
2022/12/08 09:08:57;;;;;;;;;;;;;;;;;;5080891;28;865;-73
2022/12/08 09:11:23;;;;;;;;;;;;;;;;;;5071558;28;1110;-73
2022/12/08 09:13:49;;;;;;;;;;;;;;;;;;5053888;28;1466;-73
2022/12/08 09:16:15;;;;;;;;;;;;;;;;;;5053972;28;1174;-74
2022/12/08 09:18:42;;;;;;;;;;;;;;;;;;5054143;28;1144;-74
2022/12/08 09:21:08;;;;;;;;;;;;;;;;;;5071806;28;1057;-73
2022/12/08 09:23:34;;;;;;;;;;;;;;;;;;5053136;28;1917;-73
2022/12/08 09:26:00;;;;;;;;;;;;;;;;;;5071557;28;1008;-73
2022/12/08 09:28:26;;;;;;;;;;;;;;;;;;5071669;28;1114;-73
2022/12/08 09:30:52;;;;;;;;;;;;;;;;;;5071485;28;1056;-73
2022/12/08 09:33:18;;;;;;;;;;;;;;;;;;5071012;28;1322;-73
2022/12/08 09:35:44;;;;;;;;;;;;;;;;;;5071778;28;1049;-72
2022/12/08 09:38:10;;;;;;;;;;;;;;;;;;5071459;28;960;-74
2022/12/08 09:40:36;;;;;;;;;;;;;;;;;;5071734;28;791;-73
2022/12/08 09:43:02;;;;;;;;;;;;;;;;;;5070555;28;1337;-72
2022/12/08 09:45:29;;;;;;;;;;;;;;;;;;5071526;28;1922;-74
2022/12/08 09:47:55;;;;;;;;;;;;;;;;;;5053378;28;1112;-73
2022/12/08 09:50:21;;;;;;;;;;;;;;;;;;5071745;28;802;-74
2022/12/08 09:52:47;;;;;;;;;;;;;;;;;;5053161;28;1347;-74
2022/12/08 09:55:13;;;;;;;;;;;;;;;;;;5070977;28;925;-72
2022/12/08 09:57:39;;;;;;;;;;;;;;;;;;5070887;28;1693;-74
2022/12/08 10:00:05;;;;;;;;;;;;;;;;;;5070433;28;1144;-73
2022/12/08 10:02:31;;;;;;;;;;;;;;;;;;5070686;28;1123;-74
2022/12/08 10:04:57;;;;;;;;;;;;;;;;;;5070625;28;1914;-72
2022/12/08 10:07:23;;;;;;;;;;;;;;;;;;5069931;28;1231;-74
2022/12/08 10:09:49;;;;;;;;;;;;;;;;;;5071236;28;929;-74
2022/12/08 10:12:16;;;;;;;;;;;;;;;;;;5052466;28;1289;-74
2022/12/08 10:14:42;;;;;;;;;;;;;;;;;;5070794;28;1380;-73
2022/12/08 10:17:08;;;;;;;;;;;;;;;;;;5071000;28;898;-73
2022/12/08 10:19:34;;;;;;;;;;;;;;;;;;5071042;28;855;-74
2022/12/08 10:22:00;;;;;;;;;;;;;;;;;;5070414;28;1122;-72
2022/12/08 10:24:26;;;;;;;;;;;;;;;;;;5070684;28;1914;-73
2022/12/08 10:26:53;;;;;;;;;;;;;;;;;;5070878;28;933;-73
2022/12/08 10:29:19;;;;;;;;;;;;;;;;;;5070670;28;834;-73
2022/12/08 10:31:45;;;;;;;;;;;;;;;;;;5070197;28;1044;-71
2022/12/08 10:34:11;;;;;;;;;;;;;;;;;;5076912;22;2032;-79
2022/12/08 10:36:37;;;;;;;;;;;;;;;;;;5066118;28;1835;-78
2022/12/08 10:39:03;;;;;;;;;;;;;;;;;;5084113;28;1751;-77
2022/12/08 10:41:29;;;;;;;;;;;;;;;;;;5066165;28;2204;-78
2022/12/08 10:43:55;;;;;;;;;;;;;;;;;;5066679;28;2314;-79
2022/12/08 10:46:22;;;;;;;;;;;;;;;;;;5062277;28;2067;-78
2022/12/08 10:48:48;;;;;;;;;;;;;;;;;;5066630;28;2026;-78
2022/12/08 10:51:14;;;;;;;;;;;;;;;;;;5067480;28;1739;-79
2022/12/08 10:53:40;;;;;;;;;;;;;;;;;;5065372;28;2037;-76
2022/12/08 10:56:06;;;;;;;;;;;;;;;;;;5057922;28;1817;-77
2022/12/08 10:58:34;;;;;;;;;;;;;;;;;;5062583;28;1839;-78
2022/12/08 11:01:00;;;;;;;;;;;;;;;;;;5052854;28;1753;-78
2022/12/08 11:03:26;;;;;;;;;;;;;;;;;;5058386;28;2076;-78
2022/12/08 11:05:52;;;;;;;;;;;;;;;;;;5062054;28;2109;-76
2022/12/08 11:08:19;;;;;;;;;;;;;;;;;;5063127;28;1718;-76
2022/12/08 11:10:45;;;;;;;;;;;;;;;;;;5066098;28;2137;-76
2022/12/08 11:13:11;;;;;;;;;;;;;;;;;;5058706;28;1954;-77
2022/12/08 11:15:37;;;;;;;;;;;;;;;;;;5054292;28;1753;-77
2022/12/08 11:18:03;;;;;;;;;;;;;;;;;;5051152;28;1078;-76
2022/12/08 11:20:29;;;;;;;;;;;;;;;;;;5059580;28;2097;-76
2022/12/08 11:22:55;;;;;;;;;;;;;;;;;;5062523;28;2073;-77
2022/12/08 11:25:22;;;;;;;;;;;;;;;;;;5073479;28;1973;-77
2022/12/08 11:27:49;;;;;;;;;;;;;;;;;;5072609;28;1376;-76
2022/12/08 11:30:15;;;;;;;;;;;;;;;;;;5067310;28;2156;-77
2022/12/08 11:32:41;;;;;;;;;;;;;;;;;;5054011;28;1360;-76
2022/12/08 11:35:07;;;;;;;;;;;;;;;;;;5053712;28;1332;-75
2022/12/08 11:37:33;;;;;;;;;;;;;;;;;;5056619;28;1345;-74
2022/12/08 11:39:59;;;;;;;;;;;;;;;;;;5052592;28;1313;-75
2022/12/08 11:42:25;;;;;;;;;;;;;;;;;;5053085;28;874;-75
2022/12/08 11:44:51;;;;;;;;;;;;;;;;;;5053203;28;1918;-77
2022/12/08 11:47:17;;;;;;;;;;;;;;;;;;5053829;28;957;-77
2022/12/08 11:49:44;;;;;;;;;;;;;;;;;;5056165;28;1108;-76
2022/12/08 11:52:12;;;;;;;;;;;;;;;;;;5062594;28;1653;-76
2022/12/08 11:54:38;;;;;;;;;;;;;;;;;;5059140;28;1384;-77
2022/12/08 11:57:04;;;;;;;;;;;;;;;;;;5053629;28;1096;-77
2022/12/08 11:59:30;;;;;;;;;;;;;;;;;;5083113;28;1064;-75
2022/12/08 12:01:56;;;;;;;;;;;;;;;;;;5061084;28;1220;-75
2022/12/08 12:04:23;;;;;;;;;;;;;;;;;;5073098;28;1910;-76
2022/12/08 12:06:49;;;;;;;;;;;;;;;;;;5070102;28;1130;-74
2022/12/08 12:09:15;;;;;;;;;;;;;;;;;;5073461;28;921;-75
2022/12/08 12:14:25;;;;;;;;;;;;;;;;;;5064577;28;1892;-76
2022/12/08 12:16:51;;;;;;;;;;;;;;;;;;5069962;28;2073;-77
2022/12/08 12:19:18;;;;;;;;;;;;;;;;;;5067320;28;1790;-76
2022/12/08 12:21:44;;;;;;;;;;;;;;;;;;5063110;28;1963;-79
2022/12/08 12:24:10;;;;;;;;;;;;;;;;;;5071352;28;1402;-77
2022/12/08 12:26:36;;;;;;;;;;;;;;;;;;5072941;28;1977;-75
2022/12/08 12:29:02;;;;;;;;;;;;;;;;;;5064353;28;2057;-77
2022/12/08 12:31:28;;;;;;;;;;;;;;;;;;5069254;28;1997;-76
2022/12/08 12:33:54;;;;;;;;;;;;;;;;;;5066112;28;1926;-78
2022/12/08 12:36:21;;;;;;;;;;;;;;;;;;5066298;28;1926;-76
2022/12/08 12:39:05;;;;;;;;;;;;;;;;;;5064267;28;1952;-74
2022/12/08 12:41:31;;;;;;;;;;;;;;;;;;5068134;28;1842;-76
2022/12/08 12:43:57;;;;;;;;;;;;;;;;;;5065759;28;2074;-76
2022/12/08 12:46:23;;;;;;;;;;;;;;;;;;5068867;28;2073;-76
2022/12/08 12:48:49;;;;;;;;;;;;;;;;;;5064874;28;1193;-76
2022/12/08 12:51:15;;;;;;;;;;;;;;;;;;5052135;28;1103;-74
2022/12/08 12:53:41;;;;;;;;;;;;;;;;;;5050809;28;1449;-76
2022/12/08 12:56:08;;;;;;;;;;;;;;;;;;5051246;28;1127;-75
2022/12/08 12:58:35;;;;;;;;;;;;;;;;;;5051319;28;1366;-77
2022/12/08 13:01:01;;;;;;;;;;;;;;;;;;5052352;28;1028;-77
2022/12/08 13:03:27;;;;;;;;;;;;;;;;;;5050223;28;1298;-76
2022/12/08 13:05:53;;;;;;;;;;;;;;;;;;5055337;28;1910;-76
2022/12/08 13:08:19;;;;;;;;;;;;;;;;;;5066950;28;1830;-76
2022/12/08 13:10:47;;;;;;;;;;;;;;;;;;5060294;28;1267;-75
2022/12/08 13:13:15;;;;;;;;;;;;;;;;;;5058660;28;1798;-74
2022/12/08 13:15:41;;;;;;;;;;;;;;;;;;5050586;28;1316;-76
2022/12/08 13:18:07;;;;;;;;;;;;;;;;;;5050898;28;1195;-76
2022/12/08 13:20:33;;;;;;;;;;;;;;;;;;5051576;28;2073;-78
2022/12/08 13:22:59;;;;;;;;;;;;;;;;;;5060698;28;1294;-75
2022/12/08 13:25:25;;;;;;;;;;;;;;;;;;5050238;28;1899;-76
2022/12/08 13:27:52;;;;;;;;;;;;;;;;;;5066685;28;1998;-77
2022/12/08 13:30:18;;;;;;;;;;;;;;;;;;5059363;28;1795;-77
2022/12/08 13:32:44;;;;;;;;;;;;;;;;;;5061655;28;1237;-77
2022/12/08 13:35:10;;;;;;;;;;;;;;;;;;5051832;28;1496;-77
2022/12/08 13:37:36;;;;;;;;;;;;;;;;;;5050789;28;1411;-76
2022/12/08 13:40:02;;;;;;;;;;;;;;;;;;5050582;28;1127;-77
2022/12/08 13:42:28;;;;;;;;;;;;;;;;;;5062563;28;1994;-76
2022/12/08 13:44:55;;;;;;;;;;;;;;;;;;5059682;28;1906;-75
2022/12/08 13:47:21;;;;;;;;;;;;;;;;;;5065769;28;2089;-77
2022/12/08 13:49:49;;;;;;;;;;;;;;;;;;5066098;28;1338;-77
2022/12/08 13:52:16;;;;;;;;;;;;;;;;;;5064555;28;2116;-77
2022/12/08 13:54:42;;;;;;;;;;;;;;;;;;5059495;28;1415;-77
2022/12/08 13:57:08;;;;;;;;;;;;;;;;;;5058623;28;1863;-77
2022/12/08 13:59:34;;;;;;;;;;;;;;;;;;5066411;28;1994;-77
2022/12/08 14:02:00;;;;;;;;;;;;;;;;;;5061096;28;1228;-77
2022/12/08 14:04:27;;;;;;;;;;;;;;;;;;5071191;28;1332;-78
2022/12/08 14:06:53;;;;;;;;;;;;;;;;;;5071205;28;1985;-76
2022/12/08 14:09:19;;;;;;;;;;;;;;;;;;5071272;28;1072;-76
2022/12/08 14:11:46;;;;;;;;;;;;;;;;;;5067557;28;2041;-75
2022/12/08 14:14:13;;;;;;;;;;;;;;;;;;5037935;28;1436;-76
2022/12/08 14:16:40;;;;;;;;;;;;;;;;;;5054055;28;2094;-76
2022/12/08 14:19:06;;;;;;;;;;;;;;;;;;5067475;28;1749;-77
2022/12/08 14:21:32;;;;;;;;;;;;;;;;;;5069256;28;1279;-77
2022/12/08 14:23:58;;;;;;;;;;;;;;;;;;5068329;28;2118;-76
2022/12/08 14:26:24;;;;;;;;;;;;;;;;;;5059422;28;1914;-77
2022/12/08 14:28:50;;;;;;;;;;;;;;;;;;5050887;28;781;-78
2022/12/08 14:31:16;;;;;;;;;;;;;;;;;;5059481;28;2065;-76
2022/12/08 14:33:42;;;;;;;;;;;;;;;;;;5061916;28;2452;-79
2022/12/08 14:36:08;;;;;;;;;;;;;;;;;;5064924;28;1780;-76
2022/12/08 14:38:34;;;;;;;;;;;;;;;;;;5070422;28;2048;-76
2022/12/08 14:41:00;;;;;;;;;;;;;;;;;;5071322;28;1065;-78
2022/12/08 14:43:27;;;;;;;;;;;;;;;;;;5067273;28;2001;-78
2022/12/08 14:45:53;;;;;;;;;;;;;;;;;;5062579;28;1974;-78
2022/12/08 14:48:19;;;;;;;;;;;;;;;;;;5061847;28;1838;-77
2022/12/08 14:50:45;;;;;;;;;;;;;;;;;;5069111;28;2002;-77
2022/12/08 14:53:11;;;;;;;;;;;;;;;;;;5064397;28;1731;-76
2022/12/08 14:55:38;;;;;;;;;;;;;;;;;;5065802;28;1477;-76
2022/12/08 14:58:04;;;;;;;;;;;;;;;;;;5061902;28;1329;-76
2022/12/08 15:00:30;;;;;;;;;;;;;;;;;;5054757;28;1059;-77
2022/12/08 15:02:56;;;;;;;;;;;;;;;;;;5053763;28;1043;-75
2022/12/08 15:05:22;;;;;;;;;;;;;;;;;;5055874;28;2077;-77
2022/12/08 15:07:48;;;;;;;;;;;;;;;;;;5068783;28;1333;-74
2022/12/08 15:10:14;;;;;;;;;;;;;;;;;;5054084;28;1398;-77
2022/12/08 15:12:40;;;;;;;;;;;;;;;;;;5055102;28;1126;-76
2022/12/08 15:15:06;;;;;;;;;;;;;;;;;;5055233;28;1303;-75
2022/12/08 15:17:32;;;;;;;;;;;;;;;;;;5055596;28;1008;-76
2022/12/08 15:19:58;;;;;;;;;;;;;;;;;;5055503;28;1055;-76
2022/12/08 15:22:25;;;;;;;;;;;;;;;;;;5055032;28;981;-76
2022/12/08 15:24:51;;;;;;;;;;;;;;;;;;5054733;28;1299;-76
2022/12/08 15:27:17;;;;;;;;;;;;;;;;;;5054327;28;1910;-76
2022/12/08 15:29:44;;;;;;;;;;;;;;;;;;5059295;28;1920;-78
2022/12/08 15:32:10;;;;;;;;;;;;;;;;;;5086009;28;1818;-76
2022/12/08 15:34:36;;;;;;;;;;;;;;;;;;5067121;28;1887;-78
2022/12/08 15:37:02;;;;;;;;;;;;;;;;;;5067762;28;1727;-77
2022/12/08 15:39:28;;;;;;;;;;;;;;;;;;5062734;28;1759;-76
2022/12/08 15:41:54;;;;;;;;;;;;;;;;;;5066586;28;1823;-76
2022/12/08 15:44:20;;;;;;;;;;;;;;;;;;5070547;28;1803;-77
2022/12/08 15:46:48;;;;;;;;;;;;;;;;;;5064211;28;1973;-76
2022/12/08 15:49:14;;;;;;;;;;;;;;;;;;5064294;28;1414;-76
2022/12/08 15:51:40;;;;;;;;;;;;;;;;;;5065438;28;1817;-76
2022/12/08 15:54:06;;;;;;;;;;;;;;;;;;5063164;28;1845;-78
2022/12/08 15:56:33;;;;;;;;;;;;;;;;;;5067257;28;1771;-79
2022/12/08 15:58:59;;;;;;;;;;;;;;;;;;5064171;28;2089;-77
2022/12/08 16:01:25;;;;;;;;;;;;;;;;;;5063892;28;1785;-77
2022/12/08 16:03:51;;;;;;;;;;;;;;;;;;5060614;28;1435;-78
2022/12/08 16:06:17;;;;;;;;;;;;;;;;;;5064647;28;1965;-76
2022/12/08 16:08:44;;;;;;;;;;;;;;;;;;5063595;28;1322;-77
2022/12/08 16:13:56;;;;;;;;;;;;;;;;;;5063168;28;1797;-77
2022/12/08 16:16:22;;;;;;;;;;;;;;;;;;5071740;28;1998;-76
2022/12/08 16:18:48;;;;;;;;;;;;;;;;;;5074251;28;1069;-77
2022/12/08 16:21:14;;;;;;;;;;;;;;;;;;5068924;28;2093;-77
2022/12/08 16:23:40;;;;;;;;;;;;;;;;;;5071317;28;2053;-77
2022/12/08 16:26:06;;;;;;;;;;;;;;;;;;5073723;28;1922;-77
2022/12/08 16:28:32;;;;;;;;;;;;;;;;;;5070843;28;2025;-78
2022/12/08 16:30:58;;;;;;;;;;;;;;;;;;5063858;28;1789;-77
2022/12/08 16:33:24;;;;;;;;;;;;;;;;;;5071966;28;2021;-75
2022/12/08 16:35:51;;;;;;;;;;;;;;;;;;5087307;22;1876;-75
2022/12/08 16:38:17;;;;;;;;;;;;;;;;;;5052485;28;1150;-74
2022/12/08 16:43:23;;;;;;;;;;;;;;;;;;5067399;28;1320;-74
2022/12/08 16:45:49;;;;;;;;;;;;;;;;;;5053591;28;1911;-75
2022/12/08 16:48:15;;;;;;;;;;;;;;;;;;5053939;28;838;-75
2022/12/08 16:50:41;;;;;;;;;;;;;;;;;;5054212;28;1071;-74
2022/12/08 16:53:07;;;;;;;;;;;;;;;;;;5053151;28;1079;-74
2022/12/08 16:55:33;;;;;;;;;;;;;;;;;;5053434;28;1334;-75
2022/12/08 16:58:00;;;;;;;;;;;;;;;;;;5053835;28;1094;-75
2022/12/08 17:00:26;;;;;;;;;;;;;;;;;;5054072;28;889;-75
2022/12/08 17:02:52;;;;;;;;;;;;;;;;;;5053238;28;838;-75
2022/12/08 17:05:18;;;;;;;;;;;;;;;;;;5053285;28;1234;-76
2022/12/08 17:07:44;;;;;;;;;;;;;;;;;;5052591;28;1918;-73
2022/12/08 17:10:10;;;;;;;;;;;;;;;;;;5051629;28;1563;-74